Terminal Aerodrome Forecast
Issued by NWS Mt. Holly, NJ

Home | Current Version | Previous Version | Text Only | Print | Product List | Glossary On
Versions: 1 2 3 4 5 6 7 8 9 10 11 12 13 14 15 16 17 18 19 20 21 22
000
FTUS41 KPHI 291740
TAFACY
TAF
KACY 291740Z 2918/3018 32010KT P6SM SKC
     FM292000 27008KT P6SM SKC
     FM300000 VRB03KT P6SM SCT250
     FM300400 19005KT P6SM BKN200
     FM300900 22010KT P6SM BKN050
     FM301400 26012G20KT P6SM SCT030 BKN050=

USA.gov is the U.S. government's official web portal to all federal, state and local government web resources and services.